createdAt,value
2022-08-08T00:02:30.103Z,1.00
2022-08-08T00:04:53.132Z,1.00
2022-08-08T00:07:37.978Z,1.00
2022-08-08T00:10:12.781Z,1.00
2022-08-08T00:12:56.659Z,1.00
2022-08-08T00:15:57.645Z,1.00
2022-08-08T00:18:26.818Z,1.00
2022-08-08T00:20:58.549Z,2.00
2022-08-08T00:23:47.401Z,1.00
2022-08-08T00:26:29.141Z,1.00
2022-08-08T00:29:07.818Z,1.00
2022-08-08T00:32:21.338Z,1.00
2022-08-08T00:35:18.583Z,1.00
2022-08-08T00:38:03.996Z,1.00
2022-08-08T00:41:11.864Z,1.00
2022-08-08T00:44:06.332Z,1.00
2022-08-08T00:47:37.079Z,1.00
2022-08-08T00:51:11.501Z,1.00
2022-08-08T00:54:28.626Z,1.00
2022-08-08T00:57:36.092Z,1.00
2022-08-08T01:00:12.525Z,1.00
2022-08-08T01:04:00.940Z,1.60
2022-08-08T01:07:08.219Z,16.90
2022-08-08T01:10:35.946Z,2.30
2022-08-08T01:14:03.327Z,2.40
2022-08-08T01:17:20.106Z,3.90
2022-08-08T01:20:44.376Z,5.30
2022-08-08T01:24:16.366Z,21.20
2022-08-08T01:27:07.060Z,9.30
2022-08-08T01:30:05.401Z,11.20
2022-08-08T01:33:27.496Z,8.00
2022-08-08T01:36:26.225Z,7.30
2022-08-08T01:39:27.859Z,5.10
2022-08-08T01:42:09.309Z,6.10
2022-08-08T01:45:10.044Z,5.20
2022-08-08T01:48:23.599Z,6.20
2022-08-08T01:51:31.612Z,5.90
2022-08-08T01:55:15.630Z,5.70
2022-08-08T01:57:17.325Z,5.60
2022-08-08T02:00:13.896Z,6.90
2022-08-08T02:03:55.148Z,7.50
2022-08-08T02:06:04.265Z,7.70
2022-08-08T02:08:50.808Z,8.40
2022-08-08T02:11:52.765Z,9.90
2022-08-08T02:14:33.786Z,10.90
2022-08-08T02:17:20.467Z,13.00
2022-08-08T02:20:09.447Z,28.70
2022-08-08T02:22:55.163Z,16.00
2022-08-08T02:25:33.169Z,31.20
2022-08-08T02:28:25.955Z,16.40
2022-08-08T02:31:31.234Z,18.10
2022-08-08T02:34:14.813Z,18.80
2022-08-08T02:36:59.989Z,21.80
2022-08-08T02:39:59.800Z,24.00
2022-08-08T02:44:44.922Z,24.40
2022-08-08T02:46:31.255Z,26.90
2022-08-08T02:49:50.811Z,29.60
2022-08-08T02:52:52.206Z,27.90
2022-08-08T02:55:43.641Z,27.70
2022-08-08T02:58:53.668Z,38.30
2022-08-08T03:05:03.065Z,28.20
2022-08-08T03:08:10.988Z,30.00
2022-08-08T03:11:13.985Z,29.40
2022-08-08T03:15:57.619Z,28.70
2022-08-08T03:17:09.769Z,27.20
2022-08-08T03:19:51.942Z,25.80
2022-08-08T03:22:38.193Z,26.90
2022-08-08T03:25:18.821Z,25.00
2022-08-08T03:27:58.578Z,28.00
2022-08-08T03:30:32.043Z,30.30
2022-08-08T03:33:56.233Z,31.20
2022-08-08T03:36:19.585Z,35.90
2022-08-08T03:38:55.673Z,39.20
2022-08-08T03:42:12.965Z,40.50
2022-08-08T03:44:25.475Z,43.50
2022-08-08T03:46:55.524Z,42.90
2022-08-08T03:49:58.301Z,44.30
2022-08-08T03:52:18.044Z,46.30
2022-08-08T03:55:01.565Z,49.20
2022-08-08T03:58:31.445Z,50.10
2022-08-08T04:00:30.606Z,51.50
2022-08-08T04:03:11.569Z,53.60
2022-08-08T04:05:47.976Z,54.80
2022-08-08T04:08:33.860Z,53.40
2022-08-08T04:11:11.497Z,57.80
2022-08-08T04:14:03.043Z,60.00
2022-08-08T04:16:41.079Z,58.10
2022-08-08T04:19:23.923Z,62.20
2022-08-08T04:21:58.166Z,59.40
2022-08-08T04:24:30.954Z,60.30
2022-08-08T04:27:10.439Z,59.50
2022-08-08T04:30:00.733Z,62.60
2022-08-08T04:32:38.863Z,59.30
2022-08-08T04:35:13.477Z,57.00
2022-08-08T04:37:44.706Z,57.40
2022-08-08T04:40:19.276Z,55.60
2022-08-08T04:43:00.805Z,56.40
2022-08-08T04:45:39.360Z,57.30
2022-08-08T04:48:10.026Z,59.40
2022-08-08T04:50:46.006Z,59.10
2022-08-08T04:54:27.428Z,60.30
2022-08-08T04:56:10.296Z,61.70
2022-08-08T04:58:39.067Z,62.90
2022-08-08T05:01:11.231Z,65.00
2022-08-08T05:04:09.746Z,62.40
2022-08-08T05:06:42.912Z,62.10
2022-08-08T05:09:13.155Z,58.90
2022-08-08T05:11:47.603Z,58.50
2022-08-08T05:14:25.137Z,65.90
2022-08-08T05:17:01.729Z,54.60
2022-08-08T05:20:04.467Z,45.30
2022-08-08T05:22:34.549Z,53.00
2022-08-08T05:25:04.142Z,26.20
2022-08-08T05:27:33.110Z,22.50
2022-08-08T05:30:03.630Z,17.00
2022-08-08T05:32:41.574Z,14.20
2022-08-08T05:35:15.527Z,9.40
2022-08-08T05:37:54.634Z,7.80
2022-08-08T05:40:48.850Z,5.80
2022-08-08T05:43:39.680Z,3.70
2022-08-08T05:46:14.621Z,1.20
2022-08-08T05:48:52.295Z,1.00
2022-08-08T05:51:25.812Z,1.00
2022-08-08T05:54:28.137Z,1.00
2022-08-08T05:56:48.404Z,1.00
2022-08-08T06:00:00.683Z,1.00
2022-08-08T06:02:35.178Z,1.00
2022-08-08T06:05:32.996Z,1.00
2022-08-08T06:08:02.433Z,1.00
2022-08-08T06:10:41.354Z,1.00
2022-08-08T06:13:12.523Z,1.00
2022-08-08T06:15:50.668Z,1.00
2022-08-08T06:18:27.672Z,1.00
2022-08-08T06:21:03.749Z,1.00
2022-08-08T06:24:01.889Z,1.00
2022-08-08T06:26:44.955Z,1.00
2022-08-08T06:29:59.719Z,1.00
2022-08-08T06:32:18.434Z,1.00
2022-08-08T06:35:12.316Z,1.00
2022-08-08T06:37:56.136Z,1.00
2022-08-08T06:40:33.304Z,1.00
2022-08-08T06:43:11.317Z,1.00
2022-08-08T06:45:59.703Z,1.00
2022-08-08T06:48:28.263Z,1.00
2022-08-08T06:51:02.383Z,1.00
2022-08-08T06:53:50.379Z,1.00
2022-08-08T06:56:26.316Z,1.00
2022-08-08T06:58:55.684Z,1.00
2022-08-08T07:02:26.482Z,1.00
2022-08-08T07:04:38.778Z,1.00
2022-08-08T07:07:12.589Z,1.00
2022-08-08T07:10:00.258Z,1.00
2022-08-08T07:12:42.913Z,1.00
2022-08-08T07:15:32.220Z,1.00
2022-08-08T07:18:37.113Z,1.00
2022-08-08T07:21:05.132Z,1.00
2022-08-08T07:23:57.635Z,1.00
2022-08-08T07:26:41.139Z,1.00
2022-08-08T07:29:58.726Z,1.00
2022-08-08T07:32:01.805Z,1.00
2022-08-08T07:34:32.522Z,1.00
2022-08-08T07:37:11.558Z,1.00
2022-08-08T07:39:56.241Z,1.00
2022-08-08T07:42:33.172Z,1.00
2022-08-08T07:45:05.030Z,1.00
2022-08-08T07:47:39.244Z,1.00
2022-08-08T07:50:11.340Z,1.00
2022-08-08T07:52:45.096Z,1.00
2022-08-08T07:55:29.059Z,1.00
2022-08-08T07:58:14.024Z,1.00
2022-08-08T08:00:49.366Z,1.00
2022-08-08T08:03:28.411Z,1.00
2022-08-08T08:06:02.107Z,1.00
2022-08-08T08:08:41.827Z,1.00
2022-08-08T08:11:23.458Z,1.00
2022-08-08T08:14:07.622Z,1.00
2022-08-08T08:16:48.790Z,1.00
2022-08-08T08:19:22.842Z,1.00
2022-08-08T08:21:57.622Z,1.00
2022-08-08T08:24:46.487Z,1.00
2022-08-08T08:27:17.781Z,1.00
2022-08-08T08:29:51.887Z,1.00
2022-08-08T08:32:31.946Z,1.00
2022-08-08T08:35:10.222Z,1.00
2022-08-08T08:38:13.013Z,1.00
2022-08-08T08:40:34.821Z,1.00
2022-08-08T08:43:08.966Z,1.00
2022-08-08T08:45:46.027Z,1.00
2022-08-08T08:48:16.311Z,1.00
2022-08-08T08:50:52.936Z,1.00
2022-08-08T08:53:54.664Z,1.00
2022-08-08T08:56:24.257Z,1.00
2022-08-08T08:58:58.798Z,1.00
2022-08-08T09:01:36.921Z,1.00
2022-08-08T09:04:31.845Z,1.00
2022-08-08T09:07:13.839Z,1.00
2022-08-08T09:09:55.189Z,1.00
2022-08-08T09:12:29.881Z,1.00
2022-08-08T09:15:01.120Z,1.00
2022-08-08T09:17:41.610Z,1.00
2022-08-08T09:21:56.925Z,1.00
2022-08-08T09:23:17.253Z,1.00
2022-08-08T09:25:54.935Z,1.00
2022-08-08T09:28:38.628Z,1.00
2022-08-08T09:31:16.658Z,1.00
2022-08-08T09:34:31.513Z,1.00
2022-08-08T09:36:51.458Z,1.00
2022-08-08T09:39:44.290Z,1.00
2022-08-08T09:42:21.689Z,1.00
2022-08-08T09:45:04.118Z,1.00
2022-08-08T09:48:04.778Z,1.00
2022-08-08T09:50:34.575Z,1.00
2022-08-08T09:53:23.826Z,1.00
2022-08-08T09:56:04.619Z,1.00
2022-08-08T09:58:41.785Z,1.00
2022-08-08T10:01:59.972Z,1.00
2022-08-08T10:04:22.405Z,1.00
2022-08-08T10:07:07.462Z,1.00
2022-08-08T10:10:00.221Z,1.00
2022-08-08T10:12:38.777Z,1.00
2022-08-08T10:15:24.190Z,1.00
2022-08-08T10:18:05.856Z,1.00
2022-08-08T10:20:51.181Z,1.00
2022-08-08T10:23:46.069Z,1.00
2022-08-08T10:26:30.410Z,1.00
2022-08-08T10:29:05.407Z,1.00
2022-08-08T10:31:49.274Z,1.00
2022-08-08T10:34:21.196Z,1.00
2022-08-08T10:36:51.212Z,1.00
2022-08-08T10:39:31.469Z,1.00
2022-08-08T10:42:16.654Z,1.00
2022-08-08T10:44:46.132Z,1.00
2022-08-08T10:47:21.139Z,1.00
2022-08-08T10:50:00.707Z,1.00
2022-08-08T10:52:33.762Z,1.00
2022-08-08T10:55:06.791Z,1.00
2022-08-08T10:57:45.073Z,1.00
2022-08-08T11:00:23.389Z,1.00
2022-08-08T11:02:54.733Z,1.00
2022-08-08T11:05:23.922Z,1.00
2022-08-08T11:08:31.218Z,1.00
2022-08-08T11:10:45.511Z,1.00
2022-08-08T11:13:29.953Z,1.00
2022-08-08T11:16:07.392Z,1.00
2022-08-08T11:18:39.987Z,1.00
2022-08-08T11:21:10.638Z,1.00
2022-08-08T11:24:02.169Z,1.00
2022-08-08T11:26:38.139Z,1.00
2022-08-08T11:29:09.231Z,1.00
2022-08-08T11:31:48.121Z,1.00
2022-08-08T11:34:25.751Z,1.00
2022-08-08T11:37:15.198Z,1.00
2022-08-08T11:39:57.771Z,1.00
2022-08-08T11:42:31.053Z,1.00
2022-08-08T11:45:00.448Z,1.00
2022-08-08T11:47:29.026Z,1.00
2022-08-08T11:50:13.063Z,1.00
2022-08-08T11:52:47.202Z,1.00
2022-08-08T11:55:18.821Z,1.00
2022-08-08T11:57:51.709Z,1.00
2022-08-08T12:00:23.321Z,1.00
2022-08-08T12:02:54.844Z,1.00
2022-08-08T12:05:33.674Z,1.00
2022-08-08T12:08:02.506Z,1.00
2022-08-08T12:10:34.011Z,1.00
2022-08-08T12:13:09.727Z,1.00
2022-08-08T12:15:47.234Z,1.00
2022-08-08T12:18:24.801Z,1.00
2022-08-08T12:20:54.888Z,1.00
2022-08-08T12:23:40.292Z,1.00
2022-08-08T12:26:27.426Z,1.00
2022-08-08T12:29:36.175Z,1.00
2022-08-08T12:32:13.526Z,1.00
2022-08-08T12:34:49.006Z,1.00
2022-08-08T12:37:21.981Z,1.00
2022-08-08T12:40:00.495Z,1.00
2022-08-08T12:42:33.587Z,1.00
2022-08-08T12:45:53.755Z,1.00
2022-08-08T12:48:10.334Z,1.00
2022-08-08T12:50:57.457Z,1.00
2022-08-08T12:53:30.239Z,1.00
2022-08-08T12:56:18.349Z,1.00
2022-08-08T12:58:50.976Z,1.00
2022-08-08T13:01:24.613Z,1.00
2022-08-08T13:04:18.480Z,1.00
2022-08-08T13:06:56.155Z,1.00
2022-08-08T13:09:43.198Z,1.00
2022-08-08T13:12:32.619Z,1.00
2022-08-08T13:15:03.856Z,1.00
2022-08-08T13:18:09.367Z,1.00
2022-08-08T13:20:25.986Z,1.00
2022-08-08T13:23:31.332Z,1.00
2022-08-08T13:25:50.362Z,1.00
2022-08-08T13:28:32.122Z,1.00
2022-08-08T13:31:01.954Z,1.00
2022-08-08T13:33:42.723Z,1.00
2022-08-08T13:36:12.446Z,1.00
2022-08-08T13:38:42.796Z,1.00
2022-08-08T13:41:15.873Z,1.00
2022-08-08T13:43:47.652Z,1.00
2022-08-08T13:46:26.360Z,1.00
2022-08-08T13:50:34.786Z,1.00
2022-08-08T13:51:55.337Z,1.00
2022-08-08T13:54:31.158Z,1.00
2022-08-08T13:57:12.378Z,1.00
2022-08-08T13:59:48.160Z,1.00
2022-08-08T14:02:22.366Z,1.00
2022-08-08T14:05:09.230Z,1.00
2022-08-08T14:07:52.965Z,1.00
2022-08-08T14:10:33.434Z,1.00
2022-08-08T14:13:30.764Z,1.00
2022-08-08T14:16:04.516Z,1.00
2022-08-08T14:18:52.046Z,1.00
2022-08-08T14:21:39.552Z,1.00
2022-08-08T14:24:09.629Z,1.00
2022-08-08T14:26:45.849Z,1.00
2022-08-08T14:29:28.052Z,1.00
2022-08-08T14:32:08.765Z,1.00
2022-08-08T14:34:42.382Z,1.00
2022-08-08T14:37:16.894Z,1.00
2022-08-08T14:39:53.875Z,1.00
2022-08-08T14:42:35.552Z,1.00
2022-08-08T14:45:10.046Z,1.00
2022-08-08T14:47:51.470Z,1.00
2022-08-08T14:50:39.290Z,1.00
2022-08-08T14:53:14.426Z,1.00
2022-08-08T14:55:43.800Z,1.00
2022-08-08T14:58:16.472Z,1.00
2022-08-08T15:00:49.420Z,1.00
2022-08-08T15:03:18.424Z,1.00
2022-08-08T15:05:53.906Z,1.00
2022-08-08T15:08:35.620Z,1.00
2022-08-08T15:11:11.437Z,1.00
2022-08-08T15:14:01.384Z,1.00
2022-08-08T15:16:34.651Z,1.00
2022-08-08T15:19:04.860Z,1.00
2022-08-08T15:21:33.428Z,1.00
2022-08-08T15:24:12.607Z,1.00
2022-08-08T15:26:52.629Z,1.00
2022-08-08T15:29:24.415Z,1.00
2022-08-08T15:32:17.494Z,1.00
2022-08-08T15:34:43.059Z,1.00
2022-08-08T15:37:13.309Z,1.00
2022-08-08T15:39:43.363Z,1.00
2022-08-08T15:42:17.970Z,1.00
2022-08-08T15:45:01.323Z,1.00
2022-08-08T15:47:32.054Z,1.00
2022-08-08T15:50:01.814Z,1.00
2022-08-08T15:52:31.380Z,1.00
2022-08-08T15:55:03.435Z,1.00
2022-08-08T15:57:35.689Z,1.00
2022-08-08T16:00:27.341Z,1.00
2022-08-08T16:02:58.001Z,1.00
2022-08-08T16:05:35.957Z,1.00
2022-08-08T16:08:19.938Z,1.00
2022-08-08T16:13:09.722Z,1.00
2022-08-08T16:13:46.131Z,1.00
2022-08-08T16:16:17.355Z,1.00
2022-08-08T16:18:57.301Z,1.00
2022-08-08T16:21:29.506Z,1.00
2022-08-08T16:23:59.274Z,1.00
2022-08-08T16:26:34.273Z,1.00
2022-08-08T16:29:09.629Z,1.00
2022-08-08T16:31:42.173Z,1.00
2022-08-08T16:34:19.279Z,1.00
2022-08-08T16:36:50.306Z,1.00
2022-08-08T16:39:48.986Z,1.00
2022-08-08T16:42:18.038Z,1.00
2022-08-08T16:44:54.296Z,1.00
2022-08-08T16:47:40.025Z,1.00
2022-08-08T16:50:14.067Z,1.00
2022-08-08T16:55:05.810Z,1.00
2022-08-08T16:55:53.125Z,1.00
2022-08-08T16:58:25.675Z,1.00
2022-08-08T17:00:58.942Z,1.00
2022-08-08T17:04:00.483Z,1.00
2022-08-08T17:06:36.870Z,1.00
2022-08-08T17:09:05.916Z,1.00
2022-08-08T17:11:39.475Z,1.00
2022-08-08T17:14:27.377Z,1.00
2022-08-08T17:17:03.760Z,1.00
2022-08-08T17:19:40.958Z,1.00
2022-08-08T17:22:10.917Z,1.00
2022-08-08T17:24:40.997Z,1.00
2022-08-08T17:27:10.526Z,1.00
2022-08-08T17:29:43.755Z,1.00
2022-08-08T17:32:28.919Z,1.00
2022-08-08T17:35:52.903Z,1.00
2022-08-08T17:37:53.332Z,1.00
2022-08-08T17:40:22.313Z,1.00
2022-08-08T17:42:51.879Z,1.00
2022-08-08T17:45:23.982Z,1.00
2022-08-08T17:47:54.728Z,1.00
2022-08-08T17:50:24.016Z,1.00
2022-08-08T17:52:53.596Z,1.00
2022-08-08T17:56:06.352Z,1.00
2022-08-08T17:58:11.873Z,1.00
2022-08-08T18:00:42.313Z,1.00
2022-08-08T18:03:18.639Z,1.00
2022-08-08T18:05:51.435Z,1.00
2022-08-08T18:08:25.018Z,1.00
2022-08-08T18:11:14.949Z,1.00
2022-08-08T18:13:46.057Z,1.00
2022-08-08T18:16:22.921Z,1.00
2022-08-08T18:18:54.677Z,1.00
2022-08-08T18:21:58.980Z,1.00
2022-08-08T18:24:19.754Z,1.00
2022-08-08T18:26:54.542Z,1.00
2022-08-08T18:29:30.184Z,1.00
2022-08-08T18:32:06.733Z,1.00
2022-08-08T18:34:36.762Z,1.00
2022-08-08T18:37:09.288Z,1.00
2022-08-08T18:39:41.410Z,1.00
2022-08-08T18:42:16.497Z,1.00
2022-08-08T18:44:55.872Z,1.00
2022-08-08T18:47:31.330Z,1.00
2022-08-08T18:50:02.958Z,1.00
2022-08-08T18:52:34.944Z,1.00
2022-08-08T18:55:10.123Z,1.00
2022-08-08T18:57:44.733Z,1.00
2022-08-08T19:00:19.362Z,1.00
2022-08-08T19:02:56.526Z,1.00
2022-08-08T19:05:30.203Z,1.00
2022-08-08T19:08:01.189Z,1.00
2022-08-08T19:10:31.535Z,1.00
2022-08-08T19:13:00.474Z,1.00
2022-08-08T19:15:33.700Z,1.00
2022-08-08T19:18:33.528Z,1.00
2022-08-08T19:20:55.974Z,1.00
2022-08-08T19:23:24.425Z,1.00
2022-08-08T19:26:20.231Z,1.00
2022-08-08T19:28:44.695Z,1.00
2022-08-08T19:31:16.928Z,1.00
2022-08-08T19:34:04.368Z,1.00
2022-08-08T19:36:36.883Z,1.00
2022-08-08T19:39:07.087Z,1.00
2022-08-08T19:41:38.583Z,1.00
2022-08-08T19:44:12.562Z,1.00
2022-08-08T19:46:41.949Z,1.00
2022-08-08T19:49:14.907Z,1.00
2022-08-08T19:51:45.032Z,1.00
2022-08-08T19:54:14.024Z,1.00
2022-08-08T19:56:49.049Z,1.00
2022-08-08T19:59:22.145Z,1.00
2022-08-08T20:02:02.638Z,1.00
2022-08-08T20:04:34.359Z,1.00
2022-08-08T20:08:26.758Z,1.00
2022-08-08T20:09:55.649Z,1.00
2022-08-08T20:12:34.421Z,1.00
2022-08-08T20:15:14.378Z,1.00
2022-08-08T20:17:47.593Z,1.00
2022-08-08T20:20:22.321Z,1.00
2022-08-08T20:22:54.239Z,1.00
2022-08-08T20:25:29.981Z,1.00
2022-08-08T20:28:07.022Z,1.00
2022-08-08T20:30:55.840Z,1.00
2022-08-08T20:35:58.250Z,1.00
2022-08-08T20:38:32.433Z,1.00
2022-08-08T20:41:16.895Z,1.00
2022-08-08T20:43:49.627Z,1.00
2022-08-08T20:46:21.067Z,1.00
2022-08-08T20:48:58.488Z,1.00
2022-08-08T20:51:31.768Z,1.00
2022-08-08T20:54:03.615Z,1.00
2022-08-08T20:57:05.719Z,1.00
2022-08-08T20:59:31.356Z,1.00
2022-08-08T21:02:06.117Z,1.00
2022-08-08T21:04:37.168Z,1.00
2022-08-08T21:07:08.507Z,1.00
2022-08-08T21:10:01.627Z,1.00
2022-08-08T21:12:33.107Z,1.00
2022-08-08T21:15:06.650Z,1.00
2022-08-08T21:17:36.969Z,1.00
2022-08-08T21:20:06.959Z,1.00
2022-08-08T21:22:37.849Z,1.00
2022-08-08T21:25:10.542Z,1.00
2022-08-08T21:28:09.222Z,1.00
2022-08-08T21:30:30.820Z,1.00
2022-08-08T21:32:59.501Z,1.00
2022-08-08T21:36:16.280Z,1.00
2022-08-08T21:38:18.461Z,1.00
2022-08-08T21:40:55.449Z,1.00
2022-08-08T21:43:33.350Z,1.00
2022-08-08T21:48:06.449Z,1.00
2022-08-08T21:48:53.609Z,1.00
2022-08-08T21:54:27.333Z,1.00
2022-08-08T21:54:31.359Z,1.00
2022-08-08T21:57:06.219Z,1.00
2022-08-08T22:00:01.664Z,1.00
2022-08-08T22:02:24.267Z,1.00
2022-08-08T22:04:56.088Z,1.00
2022-08-08T22:07:39.982Z,1.00
2022-08-08T22:10:18.365Z,1.00
2022-08-08T22:13:17.140Z,1.00
2022-08-08T22:15:58.482Z,1.00
2022-08-08T22:18:29.962Z,1.00
2022-08-08T22:21:01.647Z,1.00
2022-08-08T22:23:41.063Z,1.00
2022-08-08T22:26:29.484Z,1.00
2022-08-08T22:29:14.347Z,1.00
2022-08-08T22:31:58.265Z,1.00
2022-08-08T22:34:33.200Z,1.00
2022-08-08T22:37:14.758Z,1.00
2022-08-08T22:40:01.471Z,1.00
2022-08-08T22:42:34.862Z,1.00
2022-08-08T22:45:05.413Z,1.00
2022-08-08T22:47:47.277Z,1.00
2022-08-08T22:50:25.970Z,1.00
2022-08-08T22:53:22.396Z,1.00
2022-08-08T22:55:59.007Z,1.00
2022-08-08T22:58:34.675Z,1.00
2022-08-08T23:01:16.210Z,1.00
2022-08-08T23:03:54.999Z,1.00
2022-08-08T23:06:24.728Z,1.00
2022-08-08T23:08:55.542Z,1.00
2022-08-08T23:11:31.221Z,1.00
2022-08-08T23:14:20.995Z,1.00
2022-08-08T23:16:59.241Z,1.00
2022-08-08T23:19:32.154Z,1.00
2022-08-08T23:22:04.494Z,1.00
2022-08-08T23:24:36.365Z,1.00
2022-08-08T23:27:06.476Z,1.00
2022-08-08T23:29:36.795Z,1.00
2022-08-08T23:32:06.563Z,1.00
2022-08-08T23:34:39.959Z,1.00
2022-08-08T23:37:18.217Z,1.00
2022-08-08T23:39:55.581Z,1.00
2022-08-08T23:42:26.456Z,1.00
2022-08-08T23:44:57.830Z,1.00
2022-08-08T23:49:03.017Z,1.00
2022-08-08T23:50:30.598Z,1.00
2022-08-08T23:53:03.609Z,1.00
2022-08-08T23:55:42.102Z,1.00
2022-08-08T23:58:37.738Z,1.00
